Flag for USA

Past Weather in 42°59'51"N, 96°02'05"W, USA — Yesterday and Last 2 Weeks

Currently: 15 °F. Overcast. (Weather station: Foss Field, USA). See more current weather

Past Weather in 42°59'51"N, 96°02'05"W — Graph

°F

42°59'51"N, 96°02'05"W Temperature Yesterday

Maximum temperature yesterday: 22 °F (at 2:56 pm)
Minimum temperature yesterday: 10 °F (at 4:56 am)
Average temperature yesterday: 15 °F

High & Low Weather Summary for the Past Weeks

 TemperatureHumidityPressure
High45 °F (Jan 13, 2:56 pm)96% (Jan 13, 6:56 am)30.55 "Hg (Jan 13, 6:56 am)
Low9 °F (Jan 22, 7:56 am)51% (Jan 20, 12:56 pm)29.51 "Hg (Jan 13, 9:56 pm)
Average25 °F77%30.00 "Hg
* Reported Jan 13 12:56 am — Jan 28 12:56 am, 42°59'51"N, 96°02'05"W. Weather by CustomWeather, © 2021

Note: Actual official high and low records may vary slightly from our data, if they occured in-between our weather recording intervals... More about our weather records

42°59'51"N, 96°02'05"W Weather History for the Previous 24 Hours

Scroll right to see more
 ConditionsComfort  
Time TempWeatherWind HumidityBarometerVisibility
12:56 am
Thu, Jan 28
15 °FOvercast.10 mph80%30.54 "Hg10 mi
12:27 am15 °FOvercast.10 mph77%30.46 "Hg10 mi
11:56 pm
Wed, Jan 27
15 °FOvercast.10 mph77%30.55 "Hg10 mi
11:23 pm13 °FPassing clouds.9 mph77%30.46 "Hg10 mi
10:56 pm13 °FPassing clouds.9 mph77%30.55 "Hg10 mi
9:56 pm13 °FClear.9 mph77%30.54 "Hg10 mi
8:56 pm14 °FClear.9 mph73%30.54 "Hg10 mi
7:56 pm16 °FClear.10 mph71%30.54 "Hg10 mi
6:56 pm17 °FClear.7 mph68%30.53 "Hg10 mi
5:56 pm18 °FPassing clouds.10 mph68%30.53 "Hg10 mi
4:56 pm20 °FScattered clouds.10 mph65%30.52 "Hg10 mi
3:56 pm21 °FPartly sunny.7 mph65%30.50 "Hg10 mi
2:56 pm22 °FPartly sunny.9 mph62%30.50 "Hg10 mi
1:56 pm21 °FPartly sunny.5 mph60%30.50 "Hg10 mi
12:56 pm19 °FPartly sunny.6 mph62%30.51 "Hg10 mi
11:56 am18 °FPartly sunny.9 mph57%30.52 "Hg10 mi
10:56 am16 °FOvercast.6 mph56%30.53 "Hg10 mi
9:56 am14 °FPartly sunny.8 mph56%30.52 "Hg10 mi
8:56 am11 °FPartly sunny.6 mph70%30.50 "Hg10 mi
7:56 am10 °FPartly sunny.7 mph76%30.49 "Hg10 mi
6:56 am10 °FOvercast.3 mph80%30.46 "Hg10 mi
5:56 am10 °FOvercast.5 mph80%30.44 "Hg10 mi
4:56 am10 °FOvercast.5 mph76%30.43 "Hg10 mi
3:56 am11 °FPassing clouds.3 mph73%30.42 "Hg10 mi
Weather by CustomWeather, © 2021

See weather overview